BAW1NS EGKK-LOWW
Flight info
| Callsign | BAW1NS |
|---|---|
| Flight time | 2h 6m |
| Altitude | 39000 |
| Route | DVR UL9 KONAN UL607 KOK DCT LNO DCT MATUG DCT GUBAX DCT BOREP DCT ENITA DCT ETVIS DCT BUDEX BUDEX2W |
| Aircraft | B77W/H-SDE1E2E3FGHIJ2J3J4J5M1RWXY/LB1D1 |
Departure
| Time | 2026-04-25 20:39 |
|---|---|
| Airport | London Gatwick Airport (EGKK) |
Arrival
| Time | 2026-04-25 22:45 |
|---|---|
| Airport | Vienna International Airport (LOWW) |
| Time | Latitude | Longitude | Altitude | Speed | Heading |
|---|---|---|---|---|---|
| 2026-04-25 19:34 | 51.15248 | -0.18822 | 208 ft | 0 kts | 257° |
| 2026-04-25 20:07 | 51.15249 | -0.18817 | 208 ft | 3 kts | 257° |
| 2026-04-25 20:07 | 51.15257 | -0.18778 | 217 ft | 4 kts | 238° |
| 2026-04-25 20:08 | 51.15274 | -0.18748 | 213 ft | 4 kts | 204° |
| 2026-04-25 20:08 | 51.15300 | -0.18740 | 219 ft | 4 kts | 173° |
| 2026-04-25 20:08 | 51.15323 | -0.18747 | 218 ft | 1 kts | 167° |
| 2026-04-25 20:08 | 51.15324 | -0.18747 | 208 ft | 0 kts | 167° |
| 2026-04-25 20:13 | 51.15320 | -0.18745 | 208 ft | 2 kts | 167° |
| 2026-04-25 20:13 | 51.15284 | -0.18733 | 219 ft | 8 kts | 167° |
| 2026-04-25 20:13 | 51.15224 | -0.18712 | 217 ft | 9 kts | 167° |
| 2026-04-25 20:13 | 51.15189 | -0.18699 | 215 ft | 0 kts | 167° |
| 2026-04-25 20:19 | 51.15188 | -0.18699 | 208 ft | 1 kts | 167° |
| 2026-04-25 20:20 | 51.15146 | -0.18707 | 209 ft | 9 kts | 218° |
| 2026-04-25 20:20 | 51.15122 | -0.18801 | 218 ft | 9 kts | 257° |
| 2026-04-25 20:20 | 51.15107 | -0.18905 | 214 ft | 10 kts | 257° |
| 2026-04-25 20:20 | 51.15092 | -0.19009 | 219 ft | 10 kts | 257° |
| 2026-04-25 20:21 | 51.15077 | -0.19113 | 213 ft | 10 kts | 258° |
| 2026-04-25 20:21 | 51.15062 | -0.19219 | 209 ft | 10 kts | 257° |
| 2026-04-25 20:21 | 51.15048 | -0.19322 | 218 ft | 10 kts | 257° |
| 2026-04-25 20:21 | 51.15034 | -0.19427 | 214 ft | 10 kts | 258° |
| 2026-04-25 20:22 | 51.15020 | -0.19532 | 215 ft | 10 kts | 258° |
| 2026-04-25 20:22 | 51.15015 | -0.19567 | 218 ft | 10 kts | 258° |
| 2026-04-25 20:22 | 51.14991 | -0.19741 | 211 ft | 10 kts | 257° |
| 2026-04-25 20:22 | 51.14977 | -0.19846 | 216 ft | 10 kts | 257° |
| 2026-04-25 20:23 | 51.14961 | -0.19956 | 208 ft | 11 kts | 257° |
| 2026-04-25 20:23 | 51.14944 | -0.20078 | 213 ft | 12 kts | 257° |
| 2026-04-25 20:23 | 51.14926 | -0.20206 | 215 ft | 12 kts | 257° |
| 2026-04-25 20:23 | 51.14908 | -0.20339 | 214 ft | 13 kts | 257° |
| 2026-04-25 20:24 | 51.14889 | -0.20475 | 210 ft | 13 kts | 257° |
| 2026-04-25 20:24 | 51.14870 | -0.20610 | 217 ft | 13 kts | 258° |
| 2026-04-25 20:24 | 51.14852 | -0.20745 | 212 ft | 13 kts | 258° |
| 2026-04-25 20:24 | 51.14834 | -0.20881 | 214 ft | 13 kts | 258° |
| 2026-04-25 20:25 | 51.14816 | -0.21013 | 215 ft | 8 kts | 258° |
| 2026-04-25 20:25 | 51.14803 | -0.21099 | 216 ft | 8 kts | 254° |
| 2026-04-25 20:25 | 51.14783 | -0.21189 | 214 ft | 9 kts | 253° |
| 2026-04-25 20:25 | 51.14770 | -0.21279 | 212 ft | 6 kts | 257° |
| 2026-04-25 20:26 | 51.14769 | -0.21282 | 215 ft | 0 kts | 257° |
| 2026-04-25 20:32 | 51.14769 | -0.21283 | 209 ft | 0 kts | 257° |
| 2026-04-25 20:32 | 51.14764 | -0.21319 | 212 ft | 7 kts | 257° |
| 2026-04-25 20:33 | 51.14746 | -0.21360 | 209 ft | 7 kts | 220° |
| 2026-04-25 20:33 | 51.14701 | -0.21371 | 213 ft | 7 kts | 166° |
| 2026-04-25 20:33 | 51.14669 | -0.21352 | 209 ft | 0 kts | 160° |
| 2026-04-25 20:36 | 51.14668 | -0.21352 | 219 ft | 1 kts | 160° |
| 2026-04-25 20:36 | 51.14659 | -0.21346 | 209 ft | 2 kts | 160° |
| 2026-04-25 20:36 | 51.14642 | -0.21338 | 220 ft | 3 kts | 162° |
| 2026-04-25 20:36 | 51.14615 | -0.21325 | 217 ft | 5 kts | 164° |
| 2026-04-25 20:37 | 51.14576 | -0.21302 | 214 ft | 7 kts | 153° |
| 2026-04-25 20:37 | 51.14534 | -0.21241 | 219 ft | 9 kts | 123° |
| 2026-04-25 20:37 | 51.14526 | -0.21140 | 216 ft | 9 kts | 83° |
| 2026-04-25 20:37 | 51.14528 | -0.21124 | 208 ft | 0 kts | 82° |
| 2026-04-25 20:38 | 51.14528 | -0.21118 | 208 ft | 6 kts | 81° |
| 2026-04-25 20:38 | 51.14575 | -0.20770 | 212 ft | 72 kts | 78° |
| 2026-04-25 20:38 | 51.14744 | -0.19544 | 218 ft | 152 kts | 78° |
| 2026-04-25 20:39 | 51.14997 | -0.17647 | 549 ft | 182 kts | 79° |
| 2026-04-25 20:39 | 51.15258 | -0.15685 | 1458 ft | 183 kts | 78° |
| 2026-04-25 20:39 | 51.15508 | -0.13696 | 2287 ft | 188 kts | 76° |
| 2026-04-25 20:39 | 51.15718 | -0.12296 | 2548 ft | 206 kts | 76° |
| 2026-04-25 20:40 | 51.16185 | -0.09029 | 3083 ft | 240 kts | 76° |
| 2026-04-25 20:40 | 51.16561 | -0.06374 | 3903 ft | 250 kts | 76° |
| 2026-04-25 20:40 | 51.16913 | -0.03616 | 4772 ft | 258 kts | 82° |
| 2026-04-25 20:40 | 51.16957 | -0.00718 | 5592 ft | 267 kts | 91° |
| 2026-04-25 20:41 | 51.16865 | 0.02240 | 6025 ft | 268 kts | 92° |
| 2026-04-25 20:41 | 51.16766 | 0.05242 | 6021 ft | 273 kts | 92° |
| 2026-04-25 20:41 | 51.16696 | 0.08264 | 6034 ft | 272 kts | 90° |
| 2026-04-25 20:41 | 51.16637 | 0.11253 | 6032 ft | 270 kts | 90° |
| 2026-04-25 20:42 | 51.16582 | 0.14240 | 6042 ft | 270 kts | 91° |
| 2026-04-25 20:42 | 51.16539 | 0.17228 | 6074 ft | 271 kts | 89° |
| 2026-04-25 20:42 | 51.16549 | 0.20249 | 6044 ft | 273 kts | 88° |
| 2026-04-25 20:42 | 51.16564 | 0.23253 | 6051 ft | 270 kts | 88° |
| 2026-04-25 20:43 | 51.16570 | 0.26248 | 6332 ft | 270 kts | 89° |
| 2026-04-25 20:43 | 51.16587 | 0.29256 | 7228 ft | 274 kts | 89° |
| 2026-04-25 20:43 | 51.16595 | 0.32332 | 8100 ft | 280 kts | 89° |
| 2026-04-25 20:43 | 51.16596 | 0.35462 | 8984 ft | 286 kts | 89° |
| 2026-04-25 20:44 | 51.16597 | 0.38654 | 9886 ft | 291 kts | 89° |
| 2026-04-25 20:44 | 51.16597 | 0.41902 | 10730 ft | 295 kts | 89° |
| 2026-04-25 20:44 | 51.16596 | 0.45202 | 11599 ft | 301 kts | 89° |
| 2026-04-25 20:44 | 51.16595 | 0.48562 | 12580 ft | 305 kts | 89° |
| 2026-04-25 20:45 | 51.16595 | 0.51957 | 13659 ft | 309 kts | 88° |
| 2026-04-25 20:45 | 51.16594 | 0.55404 | 14608 ft | 315 kts | 88° |
| 2026-04-25 20:45 | 51.16593 | 0.58920 | 15520 ft | 320 kts | 88° |
| 2026-04-25 20:45 | 51.16591 | 0.62469 | 16453 ft | 325 kts | 89° |
| 2026-04-25 20:46 | 51.16587 | 0.66128 | 17408 ft | 331 kts | 89° |
| 2026-04-25 20:46 | 51.16582 | 0.69833 | 18121 ft | 337 kts | 89° |
| 2026-04-25 20:46 | 51.16576 | 0.73588 | 18266 ft | 342 kts | 89° |
| 2026-04-25 20:46 | 51.16568 | 0.77376 | 18256 ft | 342 kts | 89° |
| 2026-04-25 20:47 | 51.16559 | 0.81155 | 18250 ft | 340 kts | 89° |
| 2026-04-25 20:47 | 51.16549 | 0.84910 | 18242 ft | 338 kts | 89° |
| 2026-04-25 20:47 | 51.16538 | 0.88644 | 18239 ft | 337 kts | 89° |
| 2026-04-25 20:47 | 51.16526 | 0.92366 | 18239 ft | 336 kts | 89° |
| 2026-04-25 20:48 | 51.16512 | 0.96088 | 18248 ft | 335 kts | 89° |
| 2026-04-25 20:48 | 51.16498 | 0.99801 | 18243 ft | 335 kts | 89° |
| 2026-04-25 20:48 | 51.16483 | 1.03516 | 18240 ft | 335 kts | 89° |
| 2026-04-25 20:48 | 51.16466 | 1.07231 | 18241 ft | 336 kts | 89° |
| 2026-04-25 20:49 | 51.16449 | 1.10949 | 18241 ft | 336 kts | 89° |
| 2026-04-25 20:49 | 51.16430 | 1.14674 | 18246 ft | 337 kts | 89° |
| 2026-04-25 20:49 | 51.16410 | 1.18412 | 18262 ft | 338 kts | 89° |
| 2026-04-25 20:49 | 51.16388 | 1.22163 | 18888 ft | 341 kts | 89° |
| 2026-04-25 20:50 | 51.16367 | 1.25971 | 19716 ft | 347 kts | 89° |
| 2026-04-25 20:50 | 51.16343 | 1.29790 | 20563 ft | 352 kts | 89° |
| 2026-04-25 20:50 | 51.16316 | 1.33712 | 21425 ft | 357 kts | 89° |
| 2026-04-25 20:50 | 51.16243 | 1.37700 | 22255 ft | 363 kts | 91° |
| 2026-04-25 20:51 | 51.16069 | 1.41750 | 23075 ft | 370 kts | 92° |
| 2026-04-25 20:51 | 51.15864 | 1.45861 | 23920 ft | 375 kts | 93° |
| 2026-04-25 20:51 | 51.15649 | 1.50021 | 24675 ft | 379 kts | 94° |
| 2026-04-25 20:51 | 51.15433 | 1.54224 | 25444 ft | 382 kts | 94° |
| 2026-04-25 20:52 | 51.15218 | 1.58456 | 26207 ft | 385 kts | 94° |
| 2026-04-25 20:52 | 51.15073 | 1.61345 | 26718 ft | 388 kts | 94° |
| 2026-04-25 20:52 | 51.14787 | 1.67063 | 27688 ft | 394 kts | 94° |
| 2026-04-25 20:52 | 51.14568 | 1.71426 | 28423 ft | 398 kts | 94° |
| 2026-04-25 20:53 | 51.14345 | 1.75846 | 29151 ft | 402 kts | 94° |
| 2026-04-25 20:53 | 51.14119 | 1.80307 | 29869 ft | 406 kts | 94° |
| 2026-04-25 20:53 | 51.13889 | 1.84814 | 30514 ft | 411 kts | 94° |
| 2026-04-25 20:53 | 51.13652 | 1.89425 | 31103 ft | 414 kts | 94° |
| 2026-04-25 20:54 | 51.13430 | 1.93955 | 31682 ft | 416 kts | 94° |
| 2026-04-25 20:54 | 51.13187 | 1.98560 | 32217 ft | 420 kts | 94° |
| 2026-04-25 20:54 | 51.12934 | 2.03217 | 32719 ft | 424 kts | 94° |
| 2026-04-25 20:54 | 51.12681 | 2.07915 | 33233 ft | 428 kts | 94° |
| 2026-04-25 20:55 | 51.12427 | 2.12649 | 33740 ft | 431 kts | 94° |
| 2026-04-25 20:55 | 51.12171 | 2.17415 | 34235 ft | 434 kts | 94° |
| 2026-04-25 20:55 | 51.11911 | 2.22224 | 34644 ft | 437 kts | 94° |
| 2026-04-25 20:55 | 51.11648 | 2.27064 | 35044 ft | 441 kts | 94° |
| 2026-04-25 20:56 | 51.11380 | 2.31944 | 35431 ft | 443 kts | 94° |
| 2026-04-25 20:56 | 51.11109 | 2.36839 | 35812 ft | 446 kts | 94° |
| 2026-04-25 20:56 | 51.10834 | 2.41771 | 36188 ft | 449 kts | 94° |
| 2026-04-25 20:56 | 51.10555 | 2.46740 | 36546 ft | 452 kts | 94° |
| 2026-04-25 20:57 | 51.10273 | 2.51734 | 36885 ft | 455 kts | 94° |
| 2026-04-25 20:57 | 51.09987 | 2.56760 | 37166 ft | 459 kts | 95° |
| 2026-04-25 20:57 | 51.09276 | 2.66963 | 37218 ft | 465 kts | 101° |
| 2026-04-25 20:58 | 51.07805 | 2.76875 | 37214 ft | 457 kts | 104° |
| 2026-04-25 20:58 | 51.06099 | 2.86550 | 37219 ft | 454 kts | 104° |
| 2026-04-25 20:59 | 51.04635 | 2.96342 | 37239 ft | 457 kts | 103° |
| 2026-04-25 20:59 | 51.03179 | 3.06210 | 37234 ft | 460 kts | 103° |
| 2026-04-25 21:00 | 51.02164 | 3.12839 | 37237 ft | 462 kts | 104° |
| 2026-04-25 21:01 | 50.99307 | 3.31025 | 37221 ft | 464 kts | 104° |
| 2026-04-25 21:01 | 50.97631 | 3.40968 | 37239 ft | 473 kts | 104° |
| 2026-04-25 21:02 | 50.96034 | 3.51268 | 37241 ft | 488 kts | 104° |
| 2026-04-25 21:02 | 50.94381 | 3.61855 | 37241 ft | 499 kts | 104° |
| 2026-04-25 21:03 | 50.92670 | 3.72531 | 37214 ft | 499 kts | 104° |
| 2026-04-25 21:03 | 50.90950 | 3.83100 | 37215 ft | 498 kts | 105° |
| 2026-04-25 21:04 | 50.89201 | 3.93777 | 37219 ft | 497 kts | 105° |
| 2026-04-25 21:04 | 50.87471 | 4.04286 | 37225 ft | 496 kts | 105° |
| 2026-04-25 21:05 | 50.85724 | 4.14836 | 37233 ft | 495 kts | 105° |
| 2026-04-25 21:05 | 50.83969 | 4.25376 | 37237 ft | 495 kts | 105° |
| 2026-04-25 21:06 | 50.82203 | 4.35911 | 37242 ft | 495 kts | 105° |
| 2026-04-25 21:06 | 50.80429 | 4.46431 | 37239 ft | 495 kts | 105° |
| 2026-04-25 21:07 | 50.78646 | 4.56943 | 37220 ft | 496 kts | 105° |
| 2026-04-25 21:07 | 50.76846 | 4.67489 | 37249 ft | 496 kts | 106° |
| 2026-04-25 21:08 | 50.75041 | 4.77998 | 37223 ft | 497 kts | 106° |
| 2026-04-25 21:08 | 50.73218 | 4.88552 | 37210 ft | 498 kts | 106° |
| 2026-04-25 21:09 | 50.70463 | 5.04379 | 37220 ft | 499 kts | 106° |
| 2026-04-25 21:09 | 50.68623 | 5.14876 | 37205 ft | 500 kts | 106° |
| 2026-04-25 21:10 | 50.66762 | 5.25427 | 37206 ft | 500 kts | 106° |
| 2026-04-25 21:10 | 50.64889 | 5.35983 | 37205 ft | 500 kts | 106° |
| 2026-04-25 21:11 | 50.63011 | 5.46510 | 37207 ft | 499 kts | 106° |
| 2026-04-25 21:11 | 50.61123 | 5.57029 | 37217 ft | 499 kts | 106° |
| 2026-04-25 21:12 | 50.59222 | 5.67538 | 37194 ft | 499 kts | 106° |
| 2026-04-25 21:12 | 50.57832 | 5.74504 | 37186 ft | 499 kts | 111° |
| 2026-04-25 21:13 | 50.54368 | 5.87958 | 37211 ft | 499 kts | 113° |
| 2026-04-25 21:13 | 50.51730 | 5.98043 | 37198 ft | 499 kts | 112° |
| 2026-04-25 21:14 | 50.49130 | 6.08162 | 37186 ft | 500 kts | 113° |
| 2026-04-25 21:14 | 50.46522 | 6.18249 | 37187 ft | 499 kts | 112° |
| 2026-04-25 21:15 | 50.43945 | 6.28376 | 37179 ft | 500 kts | 112° |
| 2026-04-25 21:15 | 50.41717 | 6.38716 | 37172 ft | 502 kts | 104° |
| 2026-04-25 21:16 | 50.40635 | 6.49494 | 37179 ft | 502 kts | 96° |
| 2026-04-25 21:16 | 50.39857 | 6.60387 | 37175 ft | 503 kts | 96° |
| 2026-04-25 21:17 | 50.39186 | 6.69442 | 37162 ft | 504 kts | 96° |
| 2026-04-25 21:17 | 50.38337 | 6.80342 | 37157 ft | 504 kts | 96° |
| 2026-04-25 21:18 | 50.37465 | 6.91224 | 37185 ft | 504 kts | 97° |
| 2026-04-25 21:18 | 50.36544 | 7.02112 | 37192 ft | 504 kts | 96° |
| 2026-04-25 21:19 | 50.35581 | 7.12931 | 37199 ft | 501 kts | 96° |
| 2026-04-25 21:19 | 50.34762 | 7.23798 | 37181 ft | 503 kts | 96° |
| 2026-04-25 21:20 | 50.34041 | 7.32921 | 37180 ft | 505 kts | 96° |
| 2026-04-25 21:20 | 50.32972 | 7.45597 | 37161 ft | 506 kts | 96° |
| 2026-04-25 21:21 | 50.32014 | 7.56514 | 37173 ft | 507 kts | 96° |
| 2026-04-25 21:21 | 50.31082 | 7.67449 | 37173 ft | 507 kts | 96° |
| 2026-04-25 21:22 | 50.30127 | 7.78386 | 37165 ft | 507 kts | 96° |
| 2026-04-25 21:22 | 50.29160 | 7.89303 | 37174 ft | 507 kts | 96° |
| 2026-04-25 21:23 | 50.28090 | 8.00198 | 37162 ft | 507 kts | 98° |
| 2026-04-25 21:23 | 50.26886 | 8.11038 | 37162 ft | 506 kts | 98° |
| 2026-04-25 21:24 | 50.25672 | 8.21867 | 37158 ft | 506 kts | 98° |
| 2026-04-25 21:24 | 50.24470 | 8.32693 | 37162 ft | 506 kts | 98° |
| 2026-04-25 21:25 | 50.23269 | 8.43509 | 37155 ft | 506 kts | 98° |
| 2026-04-25 21:25 | 50.22066 | 8.54263 | 37151 ft | 506 kts | 98° |
| 2026-04-25 21:26 | 50.20845 | 8.65078 | 37155 ft | 506 kts | 98° |
| 2026-04-25 21:26 | 50.19609 | 8.75882 | 37154 ft | 506 kts | 98° |
| 2026-04-25 21:27 | 50.18348 | 8.86692 | 37150 ft | 506 kts | 98° |
| 2026-04-25 21:27 | 50.17077 | 8.97504 | 37143 ft | 507 kts | 98° |
| 2026-04-25 21:28 | 50.15799 | 9.08301 | 37143 ft | 507 kts | 99° |
| 2026-04-25 21:28 | 50.14510 | 9.19111 | 37156 ft | 507 kts | 98° |
| 2026-04-25 21:29 | 50.13211 | 9.29923 | 37136 ft | 508 kts | 98° |
| 2026-04-25 21:29 | 50.11900 | 9.40734 | 37146 ft | 508 kts | 98° |
| 2026-04-25 21:30 | 50.10578 | 9.51550 | 37132 ft | 508 kts | 98° |
| 2026-04-25 21:30 | 50.09472 | 9.60535 | 37137 ft | 508 kts | 99° |
| 2026-04-25 21:31 | 50.07904 | 9.73171 | 37132 ft | 509 kts | 98° |
| 2026-04-25 21:31 | 50.06551 | 9.83977 | 37133 ft | 509 kts | 98° |
| 2026-04-25 21:32 | 50.05187 | 9.94785 | 37117 ft | 509 kts | 99° |
| 2026-04-25 21:32 | 50.03812 | 10.05591 | 37123 ft | 509 kts | 99° |
| 2026-04-25 21:33 | 50.02429 | 10.16379 | 37120 ft | 509 kts | 99° |
| 2026-04-25 21:33 | 50.01034 | 10.27176 | 37114 ft | 509 kts | 99° |
| 2026-04-25 21:34 | 49.99630 | 10.37957 | 37109 ft | 509 kts | 99° |
| 2026-04-25 21:34 | 49.98217 | 10.48731 | 37114 ft | 509 kts | 99° |
| 2026-04-25 21:35 | 49.96790 | 10.59515 | 37125 ft | 510 kts | 99° |
| 2026-04-25 21:35 | 49.95355 | 10.70292 | 37110 ft | 510 kts | 99° |
| 2026-04-25 21:36 | 49.93907 | 10.81076 | 37106 ft | 510 kts | 99° |
| 2026-04-25 21:36 | 49.92460 | 10.91778 | 37114 ft | 510 kts | 99° |
| 2026-04-25 21:37 | 49.91232 | 11.00795 | 37112 ft | 511 kts | 99° |
| 2026-04-25 21:37 | 49.89513 | 11.13328 | 37100 ft | 511 kts | 99° |
| 2026-04-25 21:38 | 49.88013 | 11.24183 | 37099 ft | 512 kts | 99° |
| 2026-04-25 21:38 | 49.86511 | 11.34965 | 37087 ft | 512 kts | 99° |
| 2026-04-25 21:39 | 49.85000 | 11.45738 | 37088 ft | 512 kts | 99° |
| 2026-04-25 21:39 | 49.83477 | 11.56513 | 37078 ft | 512 kts | 99° |
| 2026-04-25 21:40 | 49.81945 | 11.67277 | 37075 ft | 512 kts | 99° |
| 2026-04-25 21:40 | 49.80401 | 11.78045 | 37068 ft | 512 kts | 99° |
| 2026-04-25 21:41 | 49.78855 | 11.88754 | 37075 ft | 512 kts | 99° |
| 2026-04-25 21:41 | 49.77285 | 11.99560 | 37066 ft | 513 kts | 99° |
| 2026-04-25 21:42 | 49.75710 | 12.10316 | 37072 ft | 513 kts | 100° |
| 2026-04-25 21:42 | 49.74125 | 12.21069 | 37072 ft | 513 kts | 100° |
| 2026-04-25 21:43 | 49.72540 | 12.31751 | 37075 ft | 514 kts | 100° |
| 2026-04-25 21:43 | 49.70934 | 12.42514 | 37066 ft | 514 kts | 100° |
| 2026-04-25 21:44 | 49.69352 | 12.53284 | 37074 ft | 514 kts | 99° |
| 2026-04-25 21:45 | 49.67125 | 12.69492 | 37070 ft | 515 kts | 99° |
| 2026-04-25 21:45 | 49.65147 | 12.80129 | 37055 ft | 519 kts | 110° |
| 2026-04-25 21:46 | 49.61794 | 12.89982 | 37054 ft | 521 kts | 123° |
| 2026-04-25 21:46 | 49.57607 | 12.99111 | 37061 ft | 521 kts | 125° |
| 2026-04-25 21:47 | 49.53387 | 13.08177 | 37056 ft | 521 kts | 124° |
| 2026-04-25 21:47 | 49.49197 | 13.17277 | 37065 ft | 521 kts | 124° |
| 2026-04-25 21:48 | 49.45072 | 13.26430 | 37058 ft | 521 kts | 122° |
| 2026-04-25 21:48 | 49.41212 | 13.35836 | 37047 ft | 520 kts | 121° |
| 2026-04-25 21:49 | 49.37410 | 13.45266 | 37045 ft | 519 kts | 121° |
| 2026-04-25 21:49 | 49.33570 | 13.54622 | 37048 ft | 518 kts | 121° |
| 2026-04-25 21:50 | 49.29692 | 13.63939 | 37051 ft | 518 kts | 122° |
| 2026-04-25 21:50 | 49.25808 | 13.73215 | 37049 ft | 518 kts | 122° |
| 2026-04-25 21:51 | 49.21914 | 13.82491 | 37062 ft | 518 kts | 122° |
| 2026-04-25 21:51 | 49.18017 | 13.91752 | 37057 ft | 518 kts | 122° |
| 2026-04-25 21:52 | 49.14106 | 14.01013 | 37050 ft | 519 kts | 122° |
| 2026-04-25 21:52 | 49.10186 | 14.10262 | 37021 ft | 519 kts | 122° |
| 2026-04-25 21:53 | 49.06262 | 14.19491 | 37035 ft | 518 kts | 122° |
| 2026-04-25 21:53 | 49.04292 | 14.24113 | 36519 ft | 526 kts | 122° |
| 2026-04-25 21:53 | 49.02303 | 14.28771 | 35745 ft | 518 kts | 122° |
| 2026-04-25 21:53 | 49.00361 | 14.33307 | 34923 ft | 507 kts | 122° |
| 2026-04-25 21:54 | 48.98455 | 14.37753 | 34088 ft | 497 kts | 122° |
| 2026-04-25 21:54 | 48.96574 | 14.42133 | 33108 ft | 490 kts | 122° |
| 2026-04-25 21:54 | 48.94716 | 14.46454 | 32231 ft | 491 kts | 122° |
| 2026-04-25 21:54 | 48.92822 | 14.50854 | 31293 ft | 505 kts | 122° |
| 2026-04-25 21:55 | 48.90866 | 14.55393 | 30322 ft | 520 kts | 122° |
| 2026-04-25 21:55 | 48.88887 | 14.59973 | 29592 ft | 517 kts | 122° |
| 2026-04-25 21:55 | 48.86919 | 14.64519 | 28882 ft | 511 kts | 122° |
| 2026-04-25 21:55 | 48.85003 | 14.68937 | 28223 ft | 504 kts | 122° |
| 2026-04-25 21:56 | 48.83060 | 14.73408 | 27582 ft | 498 kts | 122° |
| 2026-04-25 21:56 | 48.81801 | 14.76302 | 27162 ft | 494 kts | 122° |
| 2026-04-25 21:56 | 48.79280 | 14.82091 | 26316 ft | 488 kts | 123° |
| 2026-04-25 21:56 | 48.77442 | 14.86302 | 25690 ft | 483 kts | 122° |
| 2026-04-25 21:57 | 48.75597 | 14.90522 | 25083 ft | 477 kts | 122° |
| 2026-04-25 21:57 | 48.73775 | 14.94697 | 24482 ft | 473 kts | 122° |
| 2026-04-25 21:57 | 48.71961 | 14.98833 | 23898 ft | 469 kts | 123° |
| 2026-04-25 21:57 | 48.70160 | 15.02928 | 23233 ft | 466 kts | 123° |
| 2026-04-25 21:58 | 48.68369 | 15.06997 | 22567 ft | 462 kts | 123° |
| 2026-04-25 21:58 | 48.66598 | 15.11017 | 21954 ft | 457 kts | 123° |
| 2026-04-25 21:58 | 48.64846 | 15.14991 | 21360 ft | 452 kts | 123° |
| 2026-04-25 21:58 | 48.63109 | 15.18925 | 20772 ft | 448 kts | 123° |
| 2026-04-25 21:59 | 48.61386 | 15.22823 | 20193 ft | 444 kts | 123° |
| 2026-04-25 21:59 | 48.59673 | 15.26692 | 19627 ft | 441 kts | 124° |
| 2026-04-25 21:59 | 48.57973 | 15.30525 | 19053 ft | 438 kts | 124° |
| 2026-04-25 22:00 | 48.54597 | 15.38121 | 17870 ft | 434 kts | 124° |
| 2026-04-25 22:00 | 48.52946 | 15.41893 | 17272 ft | 425 kts | 120° |
| 2026-04-25 22:00 | 48.51836 | 15.45989 | 17030 ft | 424 kts | 101° |
| 2026-04-25 22:00 | 48.51515 | 15.50424 | 16520 ft | 428 kts | 91° |
| 2026-04-25 22:01 | 48.51356 | 15.54920 | 15928 ft | 430 kts | 91° |
| 2026-04-25 22:01 | 48.51148 | 15.59411 | 15361 ft | 427 kts | 92° |
| 2026-04-25 22:01 | 48.50987 | 15.62357 | 14981 ft | 424 kts | 93° |
| 2026-04-25 22:01 | 48.50816 | 15.65341 | 14609 ft | 421 kts | 93° |
| 2026-04-25 22:02 | 48.50477 | 15.71131 | 13883 ft | 416 kts | 93° |
| 2026-04-25 22:02 | 48.50223 | 15.75456 | 13316 ft | 413 kts | 93° |
| 2026-04-25 22:02 | 48.49971 | 15.79739 | 13079 ft | 412 kts | 93° |
| 2026-04-25 22:02 | 48.49718 | 15.84044 | 12988 ft | 411 kts | 93° |
| 2026-04-25 22:03 | 48.49461 | 15.88319 | 13001 ft | 407 kts | 94° |
| 2026-04-25 22:03 | 48.49033 | 15.92512 | 13004 ft | 407 kts | 103° |
| 2026-04-25 22:03 | 48.48115 | 15.96562 | 12979 ft | 409 kts | 112° |
| 2026-04-25 22:03 | 48.46996 | 16.00426 | 12973 ft | 394 kts | 114° |
| 2026-04-25 22:04 | 48.45873 | 16.04093 | 12947 ft | 380 kts | 115° |
| 2026-04-25 22:04 | 48.44763 | 16.07678 | 12600 ft | 376 kts | 115° |
| 2026-04-25 22:04 | 48.43663 | 16.11215 | 12150 ft | 367 kts | 115° |
| 2026-04-25 22:04 | 48.42604 | 16.14621 | 11696 ft | 351 kts | 115° |
| 2026-04-25 22:05 | 48.41587 | 16.17882 | 11255 ft | 338 kts | 115° |
| 2026-04-25 22:05 | 48.40605 | 16.21027 | 10828 ft | 327 kts | 115° |
| 2026-04-25 22:05 | 48.39653 | 16.24076 | 10399 ft | 317 kts | 115° |
| 2026-04-25 22:05 | 48.38724 | 16.27061 | 9974 ft | 314 kts | 115° |
| 2026-04-25 22:06 | 48.37790 | 16.30067 | 9580 ft | 320 kts | 115° |
| 2026-04-25 22:06 | 48.36842 | 16.33114 | 9147 ft | 323 kts | 115° |
| 2026-04-25 22:06 | 48.35837 | 16.36131 | 8710 ft | 320 kts | 119° |
| 2026-04-25 22:06 | 48.34774 | 16.39007 | 8256 ft | 310 kts | 120° |
| 2026-04-25 22:07 | 48.33715 | 16.41809 | 7802 ft | 309 kts | 120° |
| 2026-04-25 22:07 | 48.33008 | 16.43664 | 7540 ft | 309 kts | 120° |
| 2026-04-25 22:07 | 48.31598 | 16.47345 | 6961 ft | 298 kts | 120° |
| 2026-04-25 22:07 | 48.30576 | 16.50003 | 6544 ft | 290 kts | 120° |
| 2026-04-25 22:08 | 48.29548 | 16.52561 | 6135 ft | 282 kts | 123° |
| 2026-04-25 22:08 | 48.28468 | 16.54933 | 5986 ft | 267 kts | 125° |
| 2026-04-25 22:08 | 48.27415 | 16.57189 | 5993 ft | 264 kts | 125° |
| 2026-04-25 22:08 | 48.26350 | 16.59454 | 6005 ft | 267 kts | 125° |
| 2026-04-25 22:09 | 48.25281 | 16.61725 | 5997 ft | 265 kts | 125° |
| 2026-04-25 22:09 | 48.24221 | 16.63978 | 5934 ft | 264 kts | 125° |
| 2026-04-25 22:09 | 48.23155 | 16.66236 | 5665 ft | 267 kts | 125° |
| 2026-04-25 22:09 | 48.22075 | 16.68506 | 5394 ft | 267 kts | 125° |
| 2026-04-25 22:10 | 48.20997 | 16.70758 | 5124 ft | 265 kts | 125° |
| 2026-04-25 22:10 | 48.19923 | 16.72992 | 4848 ft | 264 kts | 125° |
| 2026-04-25 22:10 | 48.18845 | 16.75209 | 4576 ft | 262 kts | 125° |
| 2026-04-25 22:10 | 48.17769 | 16.77411 | 4304 ft | 262 kts | 125° |
| 2026-04-25 22:11 | 48.16692 | 16.79609 | 4022 ft | 261 kts | 125° |
| 2026-04-25 22:11 | 48.15616 | 16.81800 | 3749 ft | 261 kts | 125° |
| 2026-04-25 22:11 | 48.14547 | 16.83983 | 3536 ft | 258 kts | 125° |
| 2026-04-25 22:11 | 48.13497 | 16.86128 | 3354 ft | 253 kts | 125° |
| 2026-04-25 22:12 | 48.12461 | 16.88232 | 3134 ft | 248 kts | 125° |
| 2026-04-25 22:12 | 48.11455 | 16.90273 | 3032 ft | 238 kts | 125° |
| 2026-04-25 22:12 | 48.10491 | 16.92232 | 2967 ft | 231 kts | 125° |
| 2026-04-25 22:12 | 48.09866 | 16.93505 | 2975 ft | 229 kts | 125° |
| 2026-04-25 22:13 | 48.08592 | 16.96084 | 2975 ft | 231 kts | 129° |
| 2026-04-25 22:13 | 48.07328 | 16.97514 | 2961 ft | 229 kts | 164° |
| 2026-04-25 22:13 | 48.05786 | 16.97696 | 2977 ft | 219 kts | 197° |
| 2026-04-25 22:13 | 48.04329 | 16.97068 | 2990 ft | 220 kts | 204° |
| 2026-04-25 22:14 | 48.02867 | 16.96329 | 2975 ft | 224 kts | 204° |
| 2026-04-25 22:14 | 48.01415 | 16.95559 | 2979 ft | 219 kts | 211° |
| 2026-04-25 22:14 | 48.00056 | 16.94577 | 2969 ft | 216 kts | 214° |
| 2026-04-25 22:14 | 47.98738 | 16.93580 | 2967 ft | 213 kts | 214° |
| 2026-04-25 22:15 | 47.97514 | 16.92400 | 2949 ft | 199 kts | 238° |
| 2026-04-25 22:15 | 47.96984 | 16.90615 | 2982 ft | 191 kts | 273° |
| 2026-04-25 22:15 | 47.97316 | 16.88765 | 2987 ft | 186 kts | 308° |
| 2026-04-25 22:16 | 47.99344 | 16.86401 | 2982 ft | 188 kts | 324° |
| 2026-04-25 22:16 | 48.00439 | 16.85326 | 2980 ft | 186 kts | 325° |
| 2026-04-25 22:16 | 48.01483 | 16.84308 | 2955 ft | 172 kts | 324° |
| 2026-04-25 22:16 | 48.02260 | 16.83058 | 2982 ft | 165 kts | 301° |
| 2026-04-25 22:17 | 48.02871 | 16.81581 | 3012 ft | 167 kts | 304° |
| 2026-04-25 22:17 | 48.03476 | 16.80110 | 2992 ft | 166 kts | 301° |
| 2026-04-25 22:17 | 48.04022 | 16.78592 | 2978 ft | 165 kts | 299° |
| 2026-04-25 22:17 | 48.04539 | 16.77057 | 2981 ft | 165 kts | 298° |
| 2026-04-25 22:18 | 48.05047 | 16.75514 | 2979 ft | 166 kts | 298° |
| 2026-04-25 22:18 | 48.05550 | 16.73975 | 2982 ft | 164 kts | 298° |
| 2026-04-25 22:18 | 48.06048 | 16.72449 | 2758 ft | 162 kts | 298° |
| 2026-04-25 22:18 | 48.06537 | 16.70949 | 2528 ft | 160 kts | 298° |
| 2026-04-25 22:19 | 48.07025 | 16.69454 | 2327 ft | 155 kts | 298° |
| 2026-04-25 22:19 | 48.07471 | 16.68085 | 2126 ft | 138 kts | 299° |
| 2026-04-25 22:19 | 48.07871 | 16.66859 | 1957 ft | 128 kts | 300° |
| 2026-04-25 22:19 | 48.08260 | 16.65663 | 1805 ft | 128 kts | 298° |
| 2026-04-25 22:20 | 48.08629 | 16.64501 | 1629 ft | 119 kts | 296° |
| 2026-04-25 22:20 | 48.08993 | 16.63409 | 1458 ft | 120 kts | 296° |
| 2026-04-25 22:20 | 48.09377 | 16.62237 | 1329 ft | 135 kts | 295° |
| 2026-04-25 22:20 | 48.09797 | 16.60953 | 1124 ft | 137 kts | 296° |
| 2026-04-25 22:21 | 48.10207 | 16.59708 | 942 ft | 131 kts | 296° |
| 2026-04-25 22:21 | 48.10591 | 16.58472 | 789 ft | 132 kts | 294° |
| 2026-04-25 22:21 | 48.11000 | 16.57238 | 833 ft | 133 kts | 295° |
| 2026-04-25 22:21 | 48.11392 | 16.56015 | 1217 ft | 129 kts | 294° |
| 2026-04-25 22:22 | 48.11856 | 16.54903 | 1580 ft | 127 kts | 323° |
| 2026-04-25 22:22 | 48.12718 | 16.54796 | 1938 ft | 140 kts | 16° |
| 2026-04-25 22:22 | 48.13526 | 16.55815 | 2228 ft | 161 kts | 35° |
| 2026-04-25 22:22 | 48.14368 | 16.57027 | 2627 ft | 175 kts | 35° |
| 2026-04-25 22:23 | 48.15319 | 16.58337 | 3017 ft | 193 kts | 35° |
| 2026-04-25 22:23 | 48.16330 | 16.59709 | 2996 ft | 197 kts | 35° |
| 2026-04-25 22:23 | 48.17348 | 16.61071 | 2989 ft | 195 kts | 35° |
| 2026-04-25 22:23 | 48.18362 | 16.62430 | 3118 ft | 197 kts | 35° |
| 2026-04-25 22:24 | 48.19405 | 16.63829 | 3552 ft | 207 kts | 35° |
| 2026-04-25 22:24 | 48.20492 | 16.65284 | 3934 ft | 212 kts | 35° |
| 2026-04-25 22:24 | 48.21603 | 16.66756 | 4253 ft | 214 kts | 35° |
| 2026-04-25 22:24 | 48.22740 | 16.68195 | 4591 ft | 211 kts | 26° |
| 2026-04-25 22:25 | 48.24095 | 16.68784 | 4860 ft | 201 kts | 351° |
| 2026-04-25 22:25 | 48.25354 | 16.68074 | 5124 ft | 200 kts | 319° |
| 2026-04-25 22:25 | 48.26127 | 16.66310 | 5249 ft | 212 kts | 286° |
| 2026-04-25 22:25 | 48.26074 | 16.64060 | 5482 ft | 226 kts | 254° |
| 2026-04-25 22:26 | 48.25154 | 16.62101 | 5843 ft | 239 kts | 223° |
| 2026-04-25 22:26 | 48.23621 | 16.61042 | 5995 ft | 254 kts | 194° |
| 2026-04-25 22:26 | 48.21844 | 16.61220 | 5998 ft | 261 kts | 163° |
| 2026-04-25 22:26 | 48.20316 | 16.62666 | 5991 ft | 263 kts | 133° |
| 2026-04-25 22:27 | 48.19307 | 16.64928 | 6005 ft | 262 kts | 117° |
| 2026-04-25 22:27 | 48.18467 | 16.67369 | 6007 ft | 265 kts | 116° |
| 2026-04-25 22:27 | 48.17640 | 16.69861 | 6012 ft | 268 kts | 115° |
| 2026-04-25 22:27 | 48.16815 | 16.72365 | 5998 ft | 267 kts | 115° |
| 2026-04-25 22:28 | 48.15999 | 16.74846 | 5986 ft | 263 kts | 115° |
| 2026-04-25 22:28 | 48.15197 | 16.77293 | 5897 ft | 263 kts | 115° |
| 2026-04-25 22:28 | 48.14384 | 16.79767 | 5667 ft | 266 kts | 115° |
| 2026-04-25 22:28 | 48.13565 | 16.82250 | 5452 ft | 266 kts | 115° |
| 2026-04-25 22:29 | 48.12746 | 16.84717 | 5223 ft | 264 kts | 115° |
| 2026-04-25 22:29 | 48.11930 | 16.87157 | 4985 ft | 260 kts | 116° |
| 2026-04-25 22:29 | 48.10869 | 16.89298 | 4702 ft | 256 kts | 137° |
| 2026-04-25 22:30 | 48.08683 | 16.93458 | 4286 ft | 260 kts | 121° |
| 2026-04-25 22:30 | 48.07724 | 16.95764 | 4085 ft | 261 kts | 120° |
| 2026-04-25 22:30 | 48.06780 | 16.98043 | 4020 ft | 255 kts | 120° |
| 2026-04-25 22:30 | 48.06165 | 16.99525 | 3969 ft | 252 kts | 120° |
| 2026-04-25 22:31 | 48.04928 | 17.02517 | 3999 ft | 255 kts | 120° |
| 2026-04-25 22:31 | 48.03986 | 17.04801 | 3983 ft | 260 kts | 120° |
| 2026-04-25 22:31 | 48.03036 | 17.07104 | 3982 ft | 260 kts | 120° |
| 2026-04-25 22:31 | 48.02089 | 17.09393 | 3963 ft | 258 kts | 120° |
| 2026-04-25 22:32 | 48.01146 | 17.11670 | 3956 ft | 257 kts | 120° |
| 2026-04-25 22:32 | 48.00215 | 17.13936 | 3954 ft | 257 kts | 120° |
| 2026-04-25 22:32 | 47.99266 | 17.16222 | 3813 ft | 260 kts | 120° |
| 2026-04-25 22:32 | 47.98315 | 17.18519 | 3636 ft | 261 kts | 120° |
| 2026-04-25 22:33 | 47.97319 | 17.20752 | 3445 ft | 256 kts | 132° |
| 2026-04-25 22:33 | 47.95889 | 17.22183 | 3261 ft | 250 kts | 165° |
| 2026-04-25 22:33 | 47.94172 | 17.22356 | 3103 ft | 242 kts | 198° |
| 2026-04-25 22:33 | 47.92743 | 17.21267 | 3044 ft | 231 kts | 230° |
| 2026-04-25 22:34 | 47.91932 | 17.19296 | 3012 ft | 220 kts | 258° |
| 2026-04-25 22:34 | 47.91581 | 17.17088 | 2996 ft | 219 kts | 264° |
| 2026-04-25 22:34 | 47.91307 | 17.14876 | 2974 ft | 214 kts | 265° |
| 2026-04-25 22:34 | 47.91062 | 17.12721 | 2979 ft | 209 kts | 265° |
| 2026-04-25 22:35 | 47.91019 | 17.10611 | 2984 ft | 203 kts | 283° |
| 2026-04-25 22:35 | 47.91537 | 17.08677 | 2979 ft | 204 kts | 311° |
| 2026-04-25 22:35 | 47.92622 | 17.07321 | 2992 ft | 205 kts | 323° |
| 2026-04-25 22:35 | 47.93785 | 17.06089 | 2985 ft | 205 kts | 323° |
| 2026-04-25 22:36 | 47.94935 | 17.04831 | 2975 ft | 202 kts | 316° |
| 2026-04-25 22:36 | 47.95763 | 17.03170 | 2987 ft | 199 kts | 302° |
| 2026-04-25 22:36 | 47.96475 | 17.01380 | 2991 ft | 202 kts | 301° |
| 2026-04-25 22:36 | 47.97150 | 16.99530 | 2983 ft | 204 kts | 299° |
| 2026-04-25 22:37 | 47.97800 | 16.97638 | 2986 ft | 206 kts | 298° |
| 2026-04-25 22:37 | 47.98439 | 16.95720 | 2983 ft | 207 kts | 297° |
| 2026-04-25 22:37 | 47.99074 | 16.93788 | 2975 ft | 205 kts | 297° |
| 2026-04-25 22:37 | 47.99674 | 16.91957 | 2951 ft | 186 kts | 297° |
| 2026-04-25 22:38 | 48.00218 | 16.90292 | 2962 ft | 172 kts | 297° |
| 2026-04-25 22:38 | 48.00741 | 16.88692 | 2986 ft | 173 kts | 297° |
| 2026-04-25 22:38 | 48.01259 | 16.87109 | 2974 ft | 164 kts | 297° |
| 2026-04-25 22:38 | 48.01746 | 16.85619 | 3019 ft | 155 kts | 298° |
| 2026-04-25 22:39 | 48.02185 | 16.84273 | 2996 ft | 129 kts | 298° |
| 2026-04-25 22:39 | 48.02543 | 16.83176 | 2987 ft | 116 kts | 299° |
| 2026-04-25 22:39 | 48.02914 | 16.82046 | 2997 ft | 124 kts | 298° |
| 2026-04-25 22:39 | 48.03291 | 16.80894 | 2998 ft | 124 kts | 298° |
| 2026-04-25 22:40 | 48.03670 | 16.79735 | 2994 ft | 124 kts | 299° |
| 2026-04-25 22:40 | 48.04050 | 16.78573 | 2989 ft | 124 kts | 299° |
| 2026-04-25 22:40 | 48.04428 | 16.77413 | 2998 ft | 124 kts | 299° |
| 2026-04-25 22:40 | 48.04805 | 16.76260 | 2999 ft | 123 kts | 299° |
| 2026-04-25 22:41 | 48.05182 | 16.75106 | 2992 ft | 124 kts | 299° |
| 2026-04-25 22:41 | 48.05561 | 16.73943 | 2963 ft | 127 kts | 299° |
| 2026-04-25 22:41 | 48.05951 | 16.72748 | 2782 ft | 127 kts | 298° |
| 2026-04-25 22:41 | 48.06331 | 16.71579 | 2618 ft | 123 kts | 298° |
| 2026-04-25 22:42 | 48.06701 | 16.70447 | 2468 ft | 121 kts | 298° |
| 2026-04-25 22:42 | 48.07070 | 16.69318 | 2321 ft | 121 kts | 298° |
| 2026-04-25 22:42 | 48.07441 | 16.68182 | 2151 ft | 122 kts | 297° |
| 2026-04-25 22:42 | 48.07804 | 16.67064 | 1990 ft | 121 kts | 297° |
| 2026-04-25 22:43 | 48.08171 | 16.65933 | 1822 ft | 121 kts | 297° |
| 2026-04-25 22:43 | 48.08544 | 16.64797 | 1688 ft | 122 kts | 297° |
| 2026-04-25 22:43 | 48.08915 | 16.63662 | 1499 ft | 120 kts | 297° |
| 2026-04-25 22:43 | 48.09294 | 16.62528 | 1345 ft | 125 kts | 296° |
| 2026-04-25 22:44 | 48.09681 | 16.61322 | 1194 ft | 134 kts | 297° |
| 2026-04-25 22:44 | 48.10088 | 16.60065 | 1027 ft | 131 kts | 294° |
| 2026-04-25 22:44 | 48.10480 | 16.58839 | 840 ft | 131 kts | 297° |
| 2026-04-25 22:44 | 48.10891 | 16.57602 | 672 ft | 134 kts | 296° |
| 2026-04-25 22:45 | 48.11291 | 16.56376 | 624 ft | 121 kts | 296° |
| 2026-04-25 22:45 | 48.11590 | 16.55453 | 625 ft | 76 kts | 296° |
| 2026-04-25 22:45 | 48.11756 | 16.54946 | 627 ft | 34 kts | 296° |
| 2026-04-25 22:45 | 48.11890 | 16.54674 | 627 ft | 30 kts | 319° |
| 2026-04-25 22:46 | 48.12015 | 16.54551 | 623 ft | 8 kts | 346° |
| 2026-04-25 22:46 | 48.12051 | 16.54552 | 623 ft | 3 kts | 3° |
| 2026-04-25 22:46 | 48.12074 | 16.54564 | 621 ft | 4 kts | 27° |
| 2026-04-25 22:46 | 48.12078 | 16.54568 | 621 ft | 1 kts | 33° |
| 2026-04-25 22:47 | 48.12074 | 16.54612 | 620 ft | 7 kts | 112° |
| 2026-04-25 22:47 | 48.12052 | 16.54684 | 626 ft | 8 kts | 115° |
| 2026-04-25 22:47 | 48.12025 | 16.54767 | 625 ft | 9 kts | 115° |
| 2026-04-25 22:47 | 48.11995 | 16.54861 | 614 ft | 11 kts | 115° |
| 2026-04-25 22:48 | 48.11962 | 16.54966 | 630 ft | 12 kts | 115° |
| 2026-04-25 22:48 | 48.11937 | 16.55042 | 625 ft | 13 kts | 115° |
| 2026-04-25 22:48 | 48.11899 | 16.55159 | 617 ft | 12 kts | 116° |
| 2026-04-25 22:48 | 48.11859 | 16.55279 | 625 ft | 13 kts | 115° |
| 2026-04-25 22:49 | 48.11818 | 16.55409 | 623 ft | 14 kts | 115° |
| 2026-04-25 22:49 | 48.11785 | 16.55509 | 620 ft | 11 kts | 117° |
| 2026-04-25 22:49 | 48.11749 | 16.55615 | 621 ft | 11 kts | 116° |
| 2026-04-25 22:49 | 48.11715 | 16.55719 | 629 ft | 11 kts | 116° |
| 2026-04-25 22:50 | 48.11682 | 16.55822 | 624 ft | 11 kts | 116° |
| 2026-04-25 22:50 | 48.11648 | 16.55925 | 627 ft | 11 kts | 116° |
| 2026-04-25 22:50 | 48.11614 | 16.56028 | 623 ft | 11 kts | 116° |
| 2026-04-25 22:50 | 48.11589 | 16.56136 | 624 ft | 11 kts | 88° |
| 2026-04-25 22:51 | 48.11630 | 16.56215 | 624 ft | 5 kts | 33° |
| 2026-04-25 22:51 | 48.11663 | 16.56230 | 614 ft | 5 kts | 359° |
| 2026-04-25 22:51 | 48.11704 | 16.56220 | 624 ft | 6 kts | 350° |
| 2026-04-25 22:51 | 48.11747 | 16.56204 | 626 ft | 4 kts | 343° |
| 2026-04-25 22:52 | 48.11770 | 16.56194 | 625 ft | 0 kts | 344° |